Pagina principală
METAR-TAF:

METAR-TAF

Aeroporturi :

Aoba Island, Vanuatu

Latitudine: 15-18-24S, longitudine: 167-58-02E, elevație: 51 m

Observații meteo curente

Raportul a fost făcut în urmă cu 1 oră și 36 de minute, la 09:00 UTC
Vânt 2 kt din direcții variabile
Temperatură 28°C
Umiditate 89%
Presiune 1010 hPa
Vizibilitate de 10 km sau mai mult
Nori împrăștiați la o înălțime de 2000 picior

METAR: NVSG 240900Z VRB02KT 9999 SCT020 28/26 Q1010

Ora: 21:36 (10:36 UTC)

Prognoză

Raportul a fost făcut în urmă cu 5 ore și 36 de minute, la 05:00 UTC
Prognoză valabilă de la 24 ora 06 UTC la 25 ora 06 UTC
Vânt 6 kt de la Nord/Nord-vest
Vizibilitate de 10 km sau mai mult
Nori împrăștiați la o înălțime de 2000 picior
Probabilitate 30%
între IN și TE UTC
Vizibilitate: 9000 m
Nori fragmentați la o înălțime de 1800 picior
averse de ploaie,

TAF: NVSG 240500Z 2406/2506 34006KT 9999 SCT020 PROB30 INTER 2406/2412 9000 SHRA BKN018

Observații și prognoze meteo pentru peste 4.000 de aeroporturi (rapoarte METAR și TAF).

Stațiile disponibile sunt reprezentate pe hartă prin puncte galbene și roșii.

Țineți indicatorul mouse-ului pe punctul dorit pentru a vedea denumirea stației.

Apoi, faceți clic pentru a vedea observațiile și prognozele meteorologice.

Pentru a schimba harta: Pentru mărire, faceți clic pe butoanele verzi cu cruce neagră; pentru micșorare, pe butonul verde cu o liniuță; pentru hărți învecinate, pe săgețile verzi.


METAR-TAF: